sensor_id;sensor_type;location;lat;lon;timestamp;P1;durP1;ratioP1;P2;durP2;ratioP2
48813;SDS011;34634;44.108;3.074;2023-02-05T00:00:36;2.53;;;1.38;;
48813;SDS011;34634;44.108;3.074;2023-02-05T00:03:03;3.35;;;1.60;;
48813;SDS011;34634;44.108;3.074;2023-02-05T00:05:29;1.90;;;1.40;;
48813;SDS011;34634;44.108;3.074;2023-02-05T00:07:55;2.72;;;1.85;;
48813;SDS011;34634;44.108;3.074;2023-02-05T00:10:22;2.97;;;1.70;;
48813;SDS011;34634;44.108;3.074;2023-02-05T00:12:48;2.00;;;1.38;;
48813;SDS011;34634;44.108;3.074;2023-02-05T00:15:14;1.40;;;1.23;;
48813;SDS011;34634;44.108;3.074;2023-02-05T00:17:41;1.45;;;1.23;;
48813;SDS011;34634;44.108;3.074;2023-02-05T00:20:07;1.05;;;0.90;;
48813;SDS011;34634;44.108;3.074;2023-02-05T00:22:34;1.25;;;1.15;;
48813;SDS011;34634;44.108;3.074;2023-02-05T00:25:00;1.40;;;1.20;;
48813;SDS011;34634;44.108;3.074;2023-02-05T00:27:26;1.65;;;1.20;;
48813;SDS011;34634;44.108;3.074;2023-02-05T00:29:52;1.38;;;1.23;;
48813;SDS011;34634;44.108;3.074;2023-02-05T00:32:19;1.45;;;1.15;;
48813;SDS011;34634;44.108;3.074;2023-02-05T00:34:45;1.20;;;1.00;;
48813;SDS011;34634;44.108;3.074;2023-02-05T00:37:11;1.55;;;1.20;;
48813;SDS011;34634;44.108;3.074;2023-02-05T00:39:38;1.10;;;1.00;;
48813;SDS011;34634;44.108;3.074;2023-02-05T00:42:04;1.20;;;1.10;;
48813;SDS011;34634;44.108;3.074;2023-02-05T00:44:30;1.23;;;0.90;;
48813;SDS011;34634;44.108;3.074;2023-02-05T00:46:57;1.25;;;0.98;;
48813;SDS011;34634;44.108;3.074;2023-02-05T00:49:23;0.93;;;0.80;;
48813;SDS011;34634;44.108;3.074;2023-02-05T00:51:49;2.80;;;0.90;;
48813;SDS011;34634;44.108;3.074;2023-02-05T00:54:16;1.67;;;1.00;;
48813;SDS011;34634;44.108;3.074;2023-02-05T00:56:42;1.30;;;1.10;;
48813;SDS011;34634;44.108;3.074;2023-02-05T00:59:09;0.80;;;0.70;;
48813;SDS011;34634;44.108;3.074;2023-02-05T01:01:35;1.00;;;0.77;;
48813;SDS011;34634;44.108;3.074;2023-02-05T01:04:02;0.68;;;0.68;;
48813;SDS011;34634;44.108;3.074;2023-02-05T01:06:28;0.95;;;0.80;;
48813;SDS011;34634;44.108;3.074;2023-02-05T01:08:54;0.98;;;0.80;;
48813;SDS011;34634;44.108;3.074;2023-02-05T01:11:20;1.27;;;1.10;;
48813;SDS011;34634;44.108;3.074;2023-02-05T01:13:47;0.80;;;0.80;;
48813;SDS011;34634;44.108;3.074;2023-02-05T01:16:13;1.65;;;1.17;;
48813;SDS011;34634;44.108;3.074;2023-02-05T01:18:40;1.98;;;1.33;;
48813;SDS011;34634;44.108;3.074;2023-02-05T01:21:06;1.60;;;1.30;;
48813;SDS011;34634;44.108;3.074;2023-02-05T01:23:32;1.73;;;1.30;;
48813;SDS011;34634;44.108;3.074;2023-02-05T01:25:59;15.05;;;7.35;;
48813;SDS011;34634;44.108;3.074;2023-02-05T01:28:25;4.07;;;2.38;;
48813;SDS011;34634;44.108;3.074;2023-02-05T01:30:51;2.50;;;1.95;;
48813;SDS011;34634;44.108;3.074;2023-02-05T01:33:18;3.05;;;2.10;;
48813;SDS011;34634;44.108;3.074;2023-02-05T01:35:44;4.07;;;1.67;;
48813;SDS011;34634;44.108;3.074;2023-02-05T01:38:11;1.73;;;1.60;;
48813;SDS011;34634;44.108;3.074;2023-02-05T01:40:37;3.47;;;2.08;;
48813;SDS011;34634;44.108;3.074;2023-02-05T01:43:05;5.40;;;3.63;;
48813;SDS011;34634;44.108;3.074;2023-02-05T01:45:41;3.08;;;1.80;;
48813;SDS011;34634;44.108;3.074;2023-02-05T01:48:14;2.25;;;1.75;;
48813;SDS011;34634;44.108;3.074;2023-02-05T01:50:44;2.40;;;1.50;;
48813;SDS011;34634;44.108;3.074;2023-02-05T01:53:14;2.17;;;1.88;;
48813;SDS011;34634;44.108;3.074;2023-02-05T01:55:53;2.42;;;1.50;;
48813;SDS011;34634;44.108;3.074;2023-02-05T01:58:20;1.63;;;1.23;;
48813;SDS011;34634;44.108;3.074;2023-02-05T02:00:47;2.05;;;1.30;;
48813;SDS011;34634;44.108;3.074;2023-02-05T02:03:14;3.25;;;2.00;;
48813;SDS011;34634;44.108;3.074;2023-02-05T02:05:40;5.20;;;1.63;;
48813;SDS011;34634;44.108;3.074;2023-02-05T02:08:08;4.28;;;2.00;;
48813;SDS011;34634;44.108;3.074;2023-02-05T02:10:34;3.75;;;1.88;;
48813;SDS011;34634;44.108;3.074;2023-02-05T02:13:01;4.65;;;2.08;;
48813;SDS011;34634;44.108;3.074;2023-02-05T02:15:27;1.48;;;1.30;;
48813;SDS011;34634;44.108;3.074;2023-02-05T02:17:59;1.80;;;1.40;;
48813;SDS011;34634;44.108;3.074;2023-02-05T02:20:51;1.80;;;1.45;;
48813;SDS011;34634;44.108;3.074;2023-02-05T02:23:49;4.05;;;2.00;;
48813;SDS011;34634;44.108;3.074;2023-02-05T02:26:15;3.13;;;1.60;;
48813;SDS011;34634;44.108;3.074;2023-02-05T02:28:44;3.53;;;2.30;;
48813;SDS011;34634;44.108;3.074;2023-02-05T02:31:13;2.90;;;1.73;;
48813;SDS011;34634;44.108;3.074;2023-02-05T02:38:51;5.43;;;2.40;;
48813;SDS011;34634;44.108;3.074;2023-02-05T02:41:29;5.82;;;2.47;;
48813;SDS011;34634;44.108;3.074;2023-02-05T02:43:58;3.20;;;1.60;;
48813;SDS011;34634;44.108;3.074;2023-02-05T02:46:33;2.80;;;1.35;;
48813;SDS011;34634;44.108;3.074;2023-02-05T02:49:04;2.42;;;1.20;;
48813;SDS011;34634;44.108;3.074;2023-02-05T02:51:31;1.13;;;1.00;;
48813;SDS011;34634;44.108;3.074;2023-02-05T02:53:59;1.40;;;1.10;;
48813;SDS011;34634;44.108;3.074;2023-02-05T02:56:29;1.85;;;1.42;;
48813;SDS011;34634;44.108;3.074;2023-02-05T02:58:57;2.22;;;1.48;;
48813;SDS011;34634;44.108;3.074;2023-02-05T03:01:27;2.42;;;1.67;;
48813;SDS011;34634;44.108;3.074;2023-02-05T03:06:49;1.70;;;1.40;;
48813;SDS011;34634;44.108;3.074;2023-02-05T03:09:21;1.48;;;1.23;;
48813;SDS011;34634;44.108;3.074;2023-02-05T03:11:49;4.07;;;1.70;;
48813;SDS011;34634;44.108;3.074;2023-02-05T03:14:16;4.72;;;2.17;;
48813;SDS011;34634;44.108;3.074;2023-02-05T03:16:42;4.90;;;2.55;;
48813;SDS011;34634;44.108;3.074;2023-02-05T03:19:08;3.90;;;2.45;;
48813;SDS011;34634;44.108;3.074;2023-02-05T03:21:42;1.67;;;1.42;;
48813;SDS011;34634;44.108;3.074;2023-02-05T03:24:09;2.33;;;1.80;;
48813;SDS011;34634;44.108;3.074;2023-02-05T03:26:36;2.63;;;2.10;;
48813;SDS011;34634;44.108;3.074;2023-02-05T03:29:06;4.05;;;2.10;;
48813;SDS011;34634;44.108;3.074;2023-02-05T03:36:56;2.22;;;1.50;;
48813;SDS011;34634;44.108;3.074;2023-02-05T03:41:59;3.38;;;2.35;;
48813;SDS011;34634;44.108;3.074;2023-02-05T03:47:01;4.25;;;2.30;;
48813;SDS011;34634;44.108;3.074;2023-02-05T03:49:33;2.65;;;2.00;;
48813;SDS011;34634;44.108;3.074;2023-02-05T03:52:16;4.97;;;1.92;;
48813;SDS011;34634;44.108;3.074;2023-02-05T03:54:46;5.38;;;1.70;;
48813;SDS011;34634;44.108;3.074;2023-02-05T03:59:41;3.40;;;2.33;;
48813;SDS011;34634;44.108;3.074;2023-02-05T04:02:08;3.83;;;2.20;;
48813;SDS011;34634;44.108;3.074;2023-02-05T04:04:35;3.17;;;2.05;;
48813;SDS011;34634;44.108;3.074;2023-02-05T04:07:02;2.78;;;2.10;;
48813;SDS011;34634;44.108;3.074;2023-02-05T04:09:28;3.28;;;2.05;;
48813;SDS011;34634;44.108;3.074;2023-02-05T04:11:54;4.00;;;2.20;;
48813;SDS011;34634;44.108;3.074;2023-02-05T04:14:21;4.35;;;2.25;;
48813;SDS011;34634;44.108;3.074;2023-02-05T04:16:47;5.55;;;3.35;;
48813;SDS011;34634;44.108;3.074;2023-02-05T04:19:13;4.07;;;2.90;;
48813;SDS011;34634;44.108;3.074;2023-02-05T04:21:40;6.97;;;3.03;;
48813;SDS011;34634;44.108;3.074;2023-02-05T04:24:06;4.07;;;2.65;;
48813;SDS011;34634;44.108;3.074;2023-02-05T04:26:32;4.15;;;3.00;;
48813;SDS011;34634;44.108;3.074;2023-02-05T04:28:59;5.00;;;2.65;;
48813;SDS011;34634;44.108;3.074;2023-02-05T04:31:25;4.05;;;2.70;;
48813;SDS011;34634;44.108;3.074;2023-02-05T04:33:51;5.43;;;3.38;;
48813;SDS011;34634;44.108;3.074;2023-02-05T04:36:21;5.72;;;4.13;;
48813;SDS011;34634;44.108;3.074;2023-02-05T04:38:47;6.15;;;3.72;;
48813;SDS011;34634;44.108;3.074;2023-02-05T04:41:13;5.47;;;3.67;;
48813;SDS011;34634;44.108;3.074;2023-02-05T04:43:40;4.18;;;3.13;;
48813;SDS011;34634;44.108;3.074;2023-02-05T04:46:06;3.90;;;2.83;;
48813;SDS011;34634;44.108;3.074;2023-02-05T04:48:34;7.07;;;3.97;;
48813;SDS011;34634;44.108;3.074;2023-02-05T04:51:10;15.70;;;7.10;;
48813;SDS011;34634;44.108;3.074;2023-02-05T04:53:37;6.38;;;3.75;;
48813;SDS011;34634;44.108;3.074;2023-02-05T04:56:07;6.22;;;3.80;;
48813;SDS011;34634;44.108;3.074;2023-02-05T04:58:34;6.60;;;4.05;;
48813;SDS011;34634;44.108;3.074;2023-02-05T05:01:00;4.57;;;3.30;;
48813;SDS011;34634;44.108;3.074;2023-02-05T05:03:27;7.65;;;5.22;;
48813;SDS011;34634;44.108;3.074;2023-02-05T05:05:53;6.93;;;4.65;;
48813;SDS011;34634;44.108;3.074;2023-02-05T05:08:19;8.40;;;4.75;;
48813;SDS011;34634;44.108;3.074;2023-02-05T05:10:46;6.47;;;4.35;;
48813;SDS011;34634;44.108;3.074;2023-02-05T05:13:12;5.45;;;4.38;;
48813;SDS011;34634;44.108;3.074;2023-02-05T05:15:39;6.40;;;4.40;;
48813;SDS011;34634;44.108;3.074;2023-02-05T05:18:05;6.15;;;4.45;;
48813;SDS011;34634;44.108;3.074;2023-02-05T05:20:31;5.63;;;4.45;;
48813;SDS011;34634;44.108;3.074;2023-02-05T05:22:58;7.07;;;4.47;;
48813;SDS011;34634;44.108;3.074;2023-02-05T05:25:25;6.32;;;4.28;;
48813;SDS011;34634;44.108;3.074;2023-02-05T05:27:52;6.55;;;4.70;;
48813;SDS011;34634;44.108;3.074;2023-02-05T05:30:18;7.25;;;4.85;;
48813;SDS011;34634;44.108;3.074;2023-02-05T05:32:44;7.30;;;5.07;;
48813;SDS011;34634;44.108;3.074;2023-02-05T05:35:11;7.60;;;5.50;;
48813;SDS011;34634;44.108;3.074;2023-02-05T05:37:37;7.22;;;5.10;;
48813;SDS011;34634;44.108;3.074;2023-02-05T05:40:03;6.60;;;4.90;;
48813;SDS011;34634;44.108;3.074;2023-02-05T05:42:49;7.60;;;5.22;;
48813;SDS011;34634;44.108;3.074;2023-02-05T05:45:34;7.10;;;4.85;;
48813;SDS011;34634;44.108;3.074;2023-02-05T05:48:00;7.00;;;4.72;;
48813;SDS011;34634;44.108;3.074;2023-02-05T05:50:27;10.85;;;5.65;;
48813;SDS011;34634;44.108;3.074;2023-02-05T05:52:53;8.38;;;5.35;;
48813;SDS011;34634;44.108;3.074;2023-02-05T05:55:21;8.52;;;5.20;;
48813;SDS011;34634;44.108;3.074;2023-02-05T05:57:47;9.25;;;5.40;;
48813;SDS011;34634;44.108;3.074;2023-02-05T06:00:13;8.95;;;5.55;;
48813;SDS011;34634;44.108;3.074;2023-02-05T06:02:40;8.18;;;4.93;;
48813;SDS011;34634;44.108;3.074;2023-02-05T06:05:09;5.57;;;4.53;;
48813;SDS011;34634;44.108;3.074;2023-02-05T06:07:35;7.72;;;5.10;;
48813;SDS011;34634;44.108;3.074;2023-02-05T06:10:02;16.77;;;7.05;;
48813;SDS011;34634;44.108;3.074;2023-02-05T06:12:28;10.38;;;5.75;;
48813;SDS011;34634;44.108;3.074;2023-02-05T06:14:55;10.75;;;6.10;;
48813;SDS011;34634;44.108;3.074;2023-02-05T06:17:21;12.05;;;5.80;;
48813;SDS011;34634;44.108;3.074;2023-02-05T06:19:47;10.60;;;6.30;;
48813;SDS011;34634;44.108;3.074;2023-02-05T06:22:14;9.93;;;5.65;;
48813;SDS011;34634;44.108;3.074;2023-02-05T06:24:40;9.88;;;6.50;;
48813;SDS011;34634;44.108;3.074;2023-02-05T06:27:06;12.15;;;6.50;;
48813;SDS011;34634;44.108;3.074;2023-02-05T06:29:33;9.82;;;6.45;;
48813;SDS011;34634;44.108;3.074;2023-02-05T06:31:59;9.25;;;6.03;;
48813;SDS011;34634;44.108;3.074;2023-02-05T06:34:25;9.07;;;5.95;;
48813;SDS011;34634;44.108;3.074;2023-02-05T06:36:52;11.15;;;6.65;;
48813;SDS011;34634;44.108;3.074;2023-02-05T06:39:18;13.40;;;6.97;;
48813;SDS011;34634;44.108;3.074;2023-02-05T06:41:44;11.15;;;6.57;;
48813;SDS011;34634;44.108;3.074;2023-02-05T06:44:11;8.85;;;6.15;;
48813;SDS011;34634;44.108;3.074;2023-02-05T06:46:37;10.82;;;7.03;;
48813;SDS011;34634;44.108;3.074;2023-02-05T06:49:03;13.68;;;6.30;;
48813;SDS011;34634;44.108;3.074;2023-02-05T06:51:30;10.48;;;6.53;;
48813;SDS011;34634;44.108;3.074;2023-02-05T06:53:56;9.75;;;6.15;;
48813;SDS011;34634;44.108;3.074;2023-02-05T06:56:22;12.88;;;7.70;;
48813;SDS011;34634;44.108;3.074;2023-02-05T06:58:49;12.60;;;7.70;;
48813;SDS011;34634;44.108;3.074;2023-02-05T07:01:15;14.43;;;9.40;;
48813;SDS011;34634;44.108;3.074;2023-02-05T07:03:42;15.50;;;9.93;;
48813;SDS011;34634;44.108;3.074;2023-02-05T07:06:08;13.65;;;8.90;;
48813;SDS011;34634;44.108;3.074;2023-02-05T07:08:35;10.65;;;7.25;;
48813;SDS011;34634;44.108;3.074;2023-02-05T07:11:02;12.73;;;7.50;;
48813;SDS011;34634;44.108;3.074;2023-02-05T07:13:30;11.43;;;7.57;;
48813;SDS011;34634;44.108;3.074;2023-02-05T07:16:00;14.63;;;8.50;;
48813;SDS011;34634;44.108;3.074;2023-02-05T07:18:27;22.33;;;12.73;;
48813;SDS011;34634;44.108;3.074;2023-02-05T07:20:53;20.70;;;11.75;;
48813;SDS011;34634;44.108;3.074;2023-02-05T07:23:19;12.45;;;8.35;;
48813;SDS011;34634;44.108;3.074;2023-02-05T07:25:46;11.90;;;7.97;;
48813;SDS011;34634;44.108;3.074;2023-02-05T07:28:12;13.48;;;7.82;;
48813;SDS011;34634;44.108;3.074;2023-02-05T07:30:39;8.82;;;6.32;;
48813;SDS011;34634;44.108;3.074;2023-02-05T07:33:05;10.75;;;7.07;;
48813;SDS011;34634;44.108;3.074;2023-02-05T07:35:32;10.55;;;6.95;;
48813;SDS011;34634;44.108;3.074;2023-02-05T07:37:59;8.90;;;5.90;;
48813;SDS011;34634;44.108;3.074;2023-02-05T07:40:25;9.70;;;6.28;;
48813;SDS011;34634;44.108;3.074;2023-02-05T07:42:52;8.88;;;6.05;;
48813;SDS011;34634;44.108;3.074;2023-02-05T07:45:18;9.00;;;5.85;;
48813;SDS011;34634;44.108;3.074;2023-02-05T07:47:44;6.90;;;5.50;;
48813;SDS011;34634;44.108;3.074;2023-02-05T07:50:14;8.07;;;6.03;;
48813;SDS011;34634;44.108;3.074;2023-02-05T07:52:40;7.03;;;5.60;;
48813;SDS011;34634;44.108;3.074;2023-02-05T07:55:07;8.23;;;5.97;;
48813;SDS011;34634;44.108;3.074;2023-02-05T07:57:33;10.38;;;6.30;;
48813;SDS011;34634;44.108;3.074;2023-02-05T08:00:00;6.53;;;4.20;;
48813;SDS011;34634;44.108;3.074;2023-02-05T08:02:26;5.68;;;4.47;;
48813;SDS011;34634;44.108;3.074;2023-02-05T08:04:52;6.07;;;4.43;;
48813;SDS011;34634;44.108;3.074;2023-02-05T08:07:18;5.28;;;4.00;;
48813;SDS011;34634;44.108;3.074;2023-02-05T08:09:45;6.70;;;4.10;;
48813;SDS011;34634;44.108;3.074;2023-02-05T08:12:11;3.67;;;3.35;;
48813;SDS011;34634;44.108;3.074;2023-02-05T08:14:37;3.90;;;3.50;;
48813;SDS011;34634;44.108;3.074;2023-02-05T08:17:04;3.95;;;3.55;;
48813;SDS011;34634;44.108;3.074;2023-02-05T08:19:30;4.70;;;3.80;;
48813;SDS011;34634;44.108;3.074;2023-02-05T08:22:00;5.63;;;3.95;;
48813;SDS011;34634;44.108;3.074;2023-02-05T08:24:26;4.00;;;3.63;;
48813;SDS011;34634;44.108;3.074;2023-02-05T08:26:53;4.65;;;4.15;;
48813;SDS011;34634;44.108;3.074;2023-02-05T08:29:19;5.57;;;4.55;;
48813;SDS011;34634;44.108;3.074;2023-02-05T08:31:46;6.47;;;4.95;;
48813;SDS011;34634;44.108;3.074;2023-02-05T08:34:12;5.78;;;4.25;;
48813;SDS011;34634;44.108;3.074;2023-02-05T08:36:39;4.68;;;4.18;;
48813;SDS011;34634;44.108;3.074;2023-02-05T08:39:06;5.70;;;4.63;;
48813;SDS011;34634;44.108;3.074;2023-02-05T08:41:32;5.93;;;4.80;;
48813;SDS011;34634;44.108;3.074;2023-02-05T08:43:58;6.45;;;5.00;;
48813;SDS011;34634;44.108;3.074;2023-02-05T08:46:25;7.18;;;5.07;;
48813;SDS011;34634;44.108;3.074;2023-02-05T08:48:51;5.95;;;4.93;;
48813;SDS011;34634;44.108;3.074;2023-02-05T08:51:19;5.65;;;4.72;;
48813;SDS011;34634;44.108;3.074;2023-02-05T08:53:47;6.68;;;4.93;;
48813;SDS011;34634;44.108;3.074;2023-02-05T08:56:14;5.07;;;4.30;;
48813;SDS011;34634;44.108;3.074;2023-02-05T08:58:41;8.07;;;5.88;;
48813;SDS011;34634;44.108;3.074;2023-02-05T09:01:09;7.10;;;5.70;;
48813;SDS011;34634;44.108;3.074;2023-02-05T09:03:36;6.35;;;5.25;;
48813;SDS011;34634;44.108;3.074;2023-02-05T09:06:10;7.28;;;4.80;;
48813;SDS011;34634;44.108;3.074;2023-02-05T09:08:37;6.15;;;5.07;;
48813;SDS011;34634;44.108;3.074;2023-02-05T09:11:03;6.45;;;5.00;;
48813;SDS011;34634;44.108;3.074;2023-02-05T09:13:30;6.18;;;4.85;;
48813;SDS011;34634;44.108;3.074;2023-02-05T09:15:57;6.25;;;5.05;;
48813;SDS011;34634;44.108;3.074;2023-02-05T09:18:23;5.03;;;4.35;;
48813;SDS011;34634;44.108;3.074;2023-02-05T09:20:50;5.03;;;4.32;;
48813;SDS011;34634;44.108;3.074;2023-02-05T09:23:18;5.75;;;4.40;;
48813;SDS011;34634;44.108;3.074;2023-02-05T09:25:44;6.10;;;5.20;;
48813;SDS011;34634;44.108;3.074;2023-02-05T09:28:11;5.95;;;4.93;;
48813;SDS011;34634;44.108;3.074;2023-02-05T09:30:39;5.35;;;4.35;;
48813;SDS011;34634;44.108;3.074;2023-02-05T09:33:06;5.80;;;4.70;;
48813;SDS011;34634;44.108;3.074;2023-02-05T09:35:34;6.57;;;5.25;;
48813;SDS011;34634;44.108;3.074;2023-02-05T09:38:01;5.32;;;4.40;;
48813;SDS011;34634;44.108;3.074;2023-02-05T09:40:35;6.68;;;3.90;;
48813;SDS011;34634;44.108;3.074;2023-02-05T09:50:48;5.85;;;4.22;;
48813;SDS011;34634;44.108;3.074;2023-02-05T09:53:16;4.15;;;3.75;;
48813;SDS011;34634;44.108;3.074;2023-02-05T09:55:43;6.13;;;4.00;;
48813;SDS011;34634;44.108;3.074;2023-02-05T09:58:12;6.70;;;4.25;;
48813;SDS011;34634;44.108;3.074;2023-02-05T10:03:25;6.03;;;4.45;;
48813;SDS011;34634;44.108;3.074;2023-02-05T10:06:14;5.28;;;4.28;;
48813;SDS011;34634;44.108;3.074;2023-02-05T10:11:14;6.38;;;4.68;;
48813;SDS011;34634;44.108;3.074;2023-02-05T10:13:43;6.30;;;4.97;;
48813;SDS011;34634;44.108;3.074;2023-02-05T10:21:30;8.13;;;6.00;;
48813;SDS011;34634;44.108;3.074;2023-02-05T10:26:27;4.32;;;3.72;;
48813;SDS011;34634;44.108;3.074;2023-02-05T10:31:40;5.13;;;4.15;;
48813;SDS011;34634;44.108;3.074;2023-02-05T10:34:15;4.10;;;3.70;;
48813;SDS011;34634;44.108;3.074;2023-02-05T10:36:42;4.63;;;4.10;;
48813;SDS011;34634;44.108;3.074;2023-02-05T10:39:14;4.85;;;3.50;;
48813;SDS011;34634;44.108;3.074;2023-02-05T10:41:52;5.15;;;4.18;;
48813;SDS011;34634;44.108;3.074;2023-02-05T10:46:48;4.43;;;3.72;;
48813;SDS011;34634;44.108;3.074;2023-02-05T10:49:22;4.82;;;4.30;;
48813;SDS011;34634;44.108;3.074;2023-02-05T10:51:49;4.88;;;4.38;;
48813;SDS011;34634;44.108;3.074;2023-02-05T10:56:43;3.95;;;3.30;;
48813;SDS011;34634;44.108;3.074;2023-02-05T10:59:14;4.55;;;4.07;;
48813;SDS011;34634;44.108;3.074;2023-02-05T11:01:41;4.63;;;3.63;;
48813;SDS011;34634;44.108;3.074;2023-02-05T11:06:36;4.75;;;3.67;;
48813;SDS011;34634;44.108;3.074;2023-02-05T11:09:26;3.75;;;3.20;;
48813;SDS011;34634;44.108;3.074;2023-02-05T11:11:50;4.82;;;3.80;;
48813;SDS011;34634;44.108;3.074;2023-02-05T11:14:20;4.43;;;3.65;;
48813;SDS011;34634;44.108;3.074;2023-02-05T11:16:47;3.78;;;3.33;;
48813;SDS011;34634;44.108;3.074;2023-02-05T11:19:23;6.22;;;3.80;;
48813;SDS011;34634;44.108;3.074;2023-02-05T11:21:58;4.55;;;3.70;;
48813;SDS011;34634;44.108;3.074;2023-02-05T11:27:38;3.97;;;3.25;;
48813;SDS011;34634;44.108;3.074;2023-02-05T11:29:40;3.70;;;3.28;;
48813;SDS011;34634;44.108;3.074;2023-02-05T11:34:45;3.42;;;2.70;;
48813;SDS011;34634;44.108;3.074;2023-02-05T11:37:13;3.25;;;2.95;;
48813;SDS011;34634;44.108;3.074;2023-02-05T11:39:41;3.45;;;2.50;;
48813;SDS011;34634;44.108;3.074;2023-02-05T11:42:17;3.28;;;2.60;;
48813;SDS011;34634;44.108;3.074;2023-02-05T11:44:54;3.03;;;2.45;;
48813;SDS011;34634;44.108;3.074;2023-02-05T11:47:29;3.33;;;3.03;;
48813;SDS011;34634;44.108;3.074;2023-02-05T11:49:56;3.03;;;2.75;;
48813;SDS011;34634;44.108;3.074;2023-02-05T11:52:31;2.92;;;2.47;;
48813;SDS011;34634;44.108;3.074;2023-02-05T11:54:58;4.65;;;2.65;;
48813;SDS011;34634;44.108;3.074;2023-02-05T11:57:28;2.85;;;2.42;;
48813;SDS011;34634;44.108;3.074;2023-02-05T12:00:38;2.80;;;2.50;;
48813;SDS011;34634;44.108;3.074;2023-02-05T12:02:45;2.75;;;2.20;;
48813;SDS011;34634;44.108;3.074;2023-02-05T12:05:19;3.50;;;2.78;;
48813;SDS011;34634;44.108;3.074;2023-02-05T12:10:23;5.78;;;5.03;;
48813;SDS011;34634;44.108;3.074;2023-02-05T12:13:02;1.70;;;1.60;;
48813;SDS011;34634;44.108;3.074;2023-02-05T12:15:48;0.90;;;0.90;;
48813;SDS011;34634;44.108;3.074;2023-02-05T12:21:07;2.15;;;1.80;;
48813;SDS011;34634;44.108;3.074;2023-02-05T12:23:41;1.40;;;0.77;;
48813;SDS011;34634;44.108;3.074;2023-02-05T12:26:32;3.30;;;3.00;;
48813;SDS011;34634;44.108;3.074;2023-02-05T12:31:54;0.40;;;0.40;;
48813;SDS011;34634;44.108;3.074;2023-02-05T12:39:48;0.63;;;0.63;;
48813;SDS011;34634;44.108;3.074;2023-02-05T12:42:34;1.60;;;0.52;;
48813;SDS011;34634;44.108;3.074;2023-02-05T12:58:13;0.70;;;0.70;;
48813;SDS011;34634;44.108;3.074;2023-02-05T13:00:42;0.75;;;0.75;;
48813;SDS011;34634;44.108;3.074;2023-02-05T13:05:58;1.40;;;1.02;;
48813;SDS011;34634;44.108;3.074;2023-02-05T13:11:02;0.85;;;0.73;;
48813;SDS011;34634;44.108;3.074;2023-02-05T13:13:35;2.53;;;1.30;;
48813;SDS011;34634;44.108;3.074;2023-02-05T13:16:06;16.02;;;11.07;;
48813;SDS011;34634;44.108;3.074;2023-02-05T13:18:36;3.03;;;1.88;;
48813;SDS011;34634;44.108;3.074;2023-02-05T13:21:04;1.35;;;0.82;;
48813;SDS011;34634;44.108;3.074;2023-02-05T13:24:01;0.80;;;0.80;;
48813;SDS011;34634;44.108;3.074;2023-02-05T13:26:46;0.80;;;0.80;;
48813;SDS011;34634;44.108;3.074;2023-02-05T13:29:33;0.88;;;0.68;;
48813;SDS011;34634;44.108;3.074;2023-02-05T13:32:03;2.20;;;1.60;;
48813;SDS011;34634;44.108;3.074;2023-02-05T13:47:31;2.28;;;0.60;;
48813;SDS011;34634;44.108;3.074;2023-02-05T14:00:25;0.80;;;0.80;;
48813;SDS011;34634;44.108;3.074;2023-02-05T14:02:55;0.80;;;0.70;;
48813;SDS011;34634;44.108;3.074;2023-02-05T14:05:29;1.50;;;1.40;;
48813;SDS011;34634;44.108;3.074;2023-02-05T14:07:56;0.80;;;0.80;;
48813;SDS011;34634;44.108;3.074;2023-02-05T14:13:07;0.73;;;0.70;;
48813;SDS011;34634;44.108;3.074;2023-02-05T14:15:35;0.82;;;0.80;;
48813;SDS011;34634;44.108;3.074;2023-02-05T14:18:02;2.97;;;2.17;;
48813;SDS011;34634;44.108;3.074;2023-02-05T14:20:29;1.63;;;1.15;;
48813;SDS011;34634;44.108;3.074;2023-02-05T14:22:57;1.27;;;1.00;;
48813;SDS011;34634;44.108;3.074;2023-02-05T14:30:51;1.05;;;0.95;;
48813;SDS011;34634;44.108;3.074;2023-02-05T14:35:54;1.30;;;1.20;;
48813;SDS011;34634;44.108;3.074;2023-02-05T14:38:30;1.83;;;1.10;;
48813;SDS011;34634;44.108;3.074;2023-02-05T14:41:07;1.17;;;1.00;;
48813;SDS011;34634;44.108;3.074;2023-02-05T14:43:36;1.45;;;1.00;;
48813;SDS011;34634;44.108;3.074;2023-02-05T14:46:05;0.93;;;0.93;;
48813;SDS011;34634;44.108;3.074;2023-02-05T14:48:36;0.80;;;0.80;;
48813;SDS011;34634;44.108;3.074;2023-02-05T14:53:30;1.00;;;0.98;;
48813;SDS011;34634;44.108;3.074;2023-02-05T14:55:57;1.55;;;1.42;;
48813;SDS011;34634;44.108;3.074;2023-02-05T14:58:30;2.25;;;1.40;;
48813;SDS011;34634;44.108;3.074;2023-02-05T15:03:43;2.03;;;1.20;;
48813;SDS011;34634;44.108;3.074;2023-02-05T15:06:13;1.88;;;1.52;;
48813;SDS011;34634;44.108;3.074;2023-02-05T15:08:41;1.67;;;1.42;;
48813;SDS011;34634;44.108;3.074;2023-02-05T15:13:38;3.28;;;2.40;;
48813;SDS011;34634;44.108;3.074;2023-02-05T15:18:38;2.38;;;1.95;;
48813;SDS011;34634;44.108;3.074;2023-02-05T15:21:06;1.83;;;1.50;;
48813;SDS011;34634;44.108;3.074;2023-02-05T15:23:38;3.65;;;1.80;;
48813;SDS011;34634;44.108;3.074;2023-02-05T15:26:26;2.80;;;2.10;;
48813;SDS011;34634;44.108;3.074;2023-02-05T15:28:58;2.47;;;1.80;;
48813;SDS011;34634;44.108;3.074;2023-02-05T15:36:31;4.15;;;2.10;;
48813;SDS011;34634;44.108;3.074;2023-02-05T15:41:49;6.38;;;2.00;;
48813;SDS011;34634;44.108;3.074;2023-02-05T15:44:21;2.95;;;1.75;;
48813;SDS011;34634;44.108;3.074;2023-02-05T15:46:47;2.10;;;1.65;;
48813;SDS011;34634;44.108;3.074;2023-02-05T15:49:14;2.38;;;1.40;;
48813;SDS011;34634;44.108;3.074;2023-02-05T15:51:41;3.00;;;1.50;;
48813;SDS011;34634;44.108;3.074;2023-02-05T15:54:07;2.10;;;1.52;;
48813;SDS011;34634;44.108;3.074;2023-02-05T15:56:34;1.63;;;1.52;;
48813;SDS011;34634;44.108;3.074;2023-02-05T15:59:09;2.03;;;1.73;;
48813;SDS011;34634;44.108;3.074;2023-02-05T16:01:40;2.65;;;2.15;;
48813;SDS011;34634;44.108;3.074;2023-02-05T16:04:29;2.30;;;1.90;;
48813;SDS011;34634;44.108;3.074;2023-02-05T16:06:56;3.00;;;2.28;;
48813;SDS011;34634;44.108;3.074;2023-02-05T16:09:25;2.20;;;1.80;;
48813;SDS011;34634;44.108;3.074;2023-02-05T16:11:51;2.38;;;1.58;;
48813;SDS011;34634;44.108;3.074;2023-02-05T16:14:25;2.83;;;1.60;;
48813;SDS011;34634;44.108;3.074;2023-02-05T16:19:23;2.97;;;1.77;;
48813;SDS011;34634;44.108;3.074;2023-02-05T16:21:52;2.55;;;1.60;;
48813;SDS011;34634;44.108;3.074;2023-02-05T16:24:30;1.95;;;1.50;;
48813;SDS011;34634;44.108;3.074;2023-02-05T16:26:59;4.45;;;1.60;;
48813;SDS011;34634;44.108;3.074;2023-02-05T16:29:27;3.08;;;1.55;;
48813;SDS011;34634;44.108;3.074;2023-02-05T16:31:58;3.03;;;1.77;;
48813;SDS011;34634;44.108;3.074;2023-02-05T16:34:26;2.45;;;1.35;;
48813;SDS011;34634;44.108;3.074;2023-02-05T16:36:53;1.38;;;1.27;;
48813;SDS011;34634;44.108;3.074;2023-02-05T16:39:24;1.38;;;1.10;;
48813;SDS011;34634;44.108;3.074;2023-02-05T16:42:02;2.08;;;1.50;;
48813;SDS011;34634;44.108;3.074;2023-02-05T16:44:30;2.78;;;1.40;;
48813;SDS011;34634;44.108;3.074;2023-02-05T16:47:30;2.00;;;1.27;;
48813;SDS011;34634;44.108;3.074;2023-02-05T16:49:49;1.75;;;1.25;;
48813;SDS011;34634;44.108;3.074;2023-02-05T16:54:50;3.67;;;1.50;;
48813;SDS011;34634;44.108;3.074;2023-02-05T16:57:22;2.60;;;1.60;;
48813;SDS011;34634;44.108;3.074;2023-02-05T17:02:21;2.70;;;1.67;;
48813;SDS011;34634;44.108;3.074;2023-02-05T17:04:49;1.42;;;1.25;;
48813;SDS011;34634;44.108;3.074;2023-02-05T17:07:17;4.60;;;1.83;;
48813;SDS011;34634;44.108;3.074;2023-02-05T17:09:44;2.08;;;1.15;;
48813;SDS011;34634;44.108;3.074;2023-02-05T17:17:24;1.33;;;0.90;;
48813;SDS011;34634;44.108;3.074;2023-02-05T17:22:36;1.92;;;1.30;;
48813;SDS011;34634;44.108;3.074;2023-02-05T17:25:02;3.47;;;1.50;;
48813;SDS011;34634;44.108;3.074;2023-02-05T17:27:36;1.50;;;1.00;;
48813;SDS011;34634;44.108;3.074;2023-02-05T17:30:04;2.00;;;1.60;;
48813;SDS011;34634;44.108;3.074;2023-02-05T17:32:31;3.58;;;2.10;;